sensor_id;sensor_type;location;lat;lon;timestamp;pressure;altitude;pressure_sealevel;temperature;humidity
46944;BME280;32678;43.852;25.952;2023-03-03T00:00:29;101555.75;;;6.74;76.87
46944;BME280;32678;43.852;25.952;2023-03-03T00:05:27;101555.75;;;6.74;76.45
46944;BME280;32678;43.852;25.952;2023-03-03T00:10:27;101554.84;;;6.82;76.13
46944;BME280;32678;43.852;25.952;2023-03-03T00:15:24;101550.47;;;6.89;75.74
46944;BME280;32678;43.852;25.952;2023-03-03T00:20:30;101548.66;;;6.97;75.76
46944;BME280;32678;43.852;25.952;2023-03-03T00:25:29;101534.66;;;7.09;75.31
46944;BME280;32678;43.852;25.952;2023-03-03T00:30:26;101532.91;;;7.14;75.02
46944;BME280;32678;43.852;25.952;2023-03-03T00:35:24;101524.25;;;7.10;74.71
46944;BME280;32678;43.852;25.952;2023-03-03T00:40:25;101519.06;;;7.07;75.04
46944;BME280;32678;43.852;25.952;2023-03-03T00:45:28;101508.66;;;7.03;74.69
46944;BME280;32678;43.852;25.952;2023-03-03T00:50:30;101500.97;;;6.81;75.72
46944;BME280;32678;43.852;25.952;2023-03-03T00:55:28;101504.41;;;6.85;75.47
46944;BME280;32678;43.852;25.952;2023-03-03T01:00:27;101497.63;;;6.55;76.78
46944;BME280;32678;43.852;25.952;2023-03-03T01:05:24;101491.44;;;6.77;76.83
46944;BME280;32678;43.852;25.952;2023-03-03T01:10:21;101488.94;;;6.50;76.44
46944;BME280;32678;43.852;25.952;2023-03-03T01:15:19;101480.22;;;6.62;76.75
46944;BME280;32678;43.852;25.952;2023-03-03T01:20:16;101474.94;;;6.78;76.26
46944;BME280;32678;43.852;25.952;2023-03-03T01:25:13;101471.41;;;6.82;76.51
46944;BME280;32678;43.852;25.952;2023-03-03T01:30:10;101460.97;;;6.85;75.93
46944;BME280;32678;43.852;25.952;2023-03-03T01:35:08;101467.78;;;7.05;75.54
46944;BME280;32678;43.852;25.952;2023-03-03T01:40:11;101468.66;;;7.05;75.52
46944;BME280;32678;43.852;25.952;2023-03-03T01:45:16;101463.34;;;7.17;75.60
46944;BME280;32678;43.852;25.952;2023-03-03T01:50:14;101462.59;;;7.03;75.25
46944;BME280;32678;43.852;25.952;2023-03-03T01:55:14;101460.13;;;6.83;76.19
46944;BME280;32678;43.852;25.952;2023-03-03T02:00:13;101455.09;;;6.53;77.61
46944;BME280;32678;43.852;25.952;2023-03-03T02:05:10;101450.81;;;6.38;78.41
46944;BME280;32678;43.852;25.952;2023-03-03T02:10:09;101445.66;;;6.28;79.43
46944;BME280;32678;43.852;25.952;2023-03-03T02:20:14;101445.53;;;6.50;78.38
46944;BME280;32678;43.852;25.952;2023-03-03T02:25:16;101438.63;;;6.40;78.85
46944;BME280;32678;43.852;25.952;2023-03-03T02:30:20;101434.34;;;6.32;79.20
46944;BME280;32678;43.852;25.952;2023-03-03T02:35:25;101430.88;;;6.34;78.72
46944;BME280;32678;43.852;25.952;2023-03-03T02:40:23;101429.97;;;6.35;78.79
46944;BME280;32678;43.852;25.952;2023-03-03T02:45:22;101435.19;;;6.44;78.30
46944;BME280;32678;43.852;25.952;2023-03-03T02:50:19;101429.78;;;6.72;77.58
46944;BME280;32678;43.852;25.952;2023-03-03T02:55:16;101431.50;;;6.79;76.75
46944;BME280;32678;43.852;25.952;2023-03-03T03:00:13;101435.78;;;6.84;76.49
46944;BME280;32678;43.852;25.952;2023-03-03T03:05:14;101435.69;;;6.95;76.13
46944;BME280;32678;43.852;25.952;2023-03-03T03:10:11;101434.78;;;7.01;75.99
46944;BME280;32678;43.852;25.952;2023-03-03T03:15:11;101432.97;;;7.10;75.82
46944;BME280;32678;43.852;25.952;2023-03-03T03:20:08;101428.63;;;7.11;75.30
46944;BME280;32678;43.852;25.952;2023-03-03T03:25:06;101419.00;;;7.19;74.77
46944;BME280;32678;43.852;25.952;2023-03-03T03:30:07;101413.84;;;7.10;75.13
46944;BME280;32678;43.852;25.952;2023-03-03T03:35:04;101399.91;;;7.17;75.06
46944;BME280;32678;43.852;25.952;2023-03-03T03:40:01;101408.50;;;7.25;74.91
46944;BME280;32678;43.852;25.952;2023-03-03T03:45:00;101404.94;;;7.36;74.69
46944;BME280;32678;43.852;25.952;2023-03-03T03:49:57;101402.28;;;7.41;74.40
46944;BME280;32678;43.852;25.952;2023-03-03T03:54:54;101409.16;;;7.50;74.42
46944;BME280;32678;43.852;25.952;2023-03-03T03:59:51;101408.31;;;7.48;73.84
46944;BME280;32678;43.852;25.952;2023-03-03T04:04:48;101407.41;;;7.50;74.16
46944;BME280;32678;43.852;25.952;2023-03-03T04:09:45;101404.16;;;7.27;74.07
46944;BME280;32678;43.852;25.952;2023-03-03T04:14:42;101399.91;;;7.17;75.03
46944;BME280;32678;43.852;25.952;2023-03-03T04:19:39;101397.34;;;7.12;75.35
46944;BME280;32678;43.852;25.952;2023-03-03T04:24:37;101393.72;;;7.24;75.34
46944;BME280;32678;43.852;25.952;2023-03-03T04:29:34;101397.25;;;7.21;75.45
46944;BME280;32678;43.852;25.952;2023-03-03T04:34:31;101399.78;;;7.29;75.19
46944;BME280;32678;43.852;25.952;2023-03-03T04:39:31;101410.16;;;7.33;75.58
46944;BME280;32678;43.852;25.952;2023-03-03T04:44:28;101403.09;;;7.46;75.13
46944;BME280;32678;43.852;25.952;2023-03-03T04:49:25;101399.50;;;7.58;74.64
46944;BME280;32678;43.852;25.952;2023-03-03T04:54:22;101397.69;;;7.63;74.47
46944;BME280;32678;43.852;25.952;2023-03-03T04:59:19;101400.56;;;7.38;74.56
46944;BME280;32678;43.852;25.952;2023-03-03T05:04:16;101400.84;;;7.05;76.36
46944;BME280;32678;43.852;25.952;2023-03-03T05:09:13;101405.28;;;6.94;77.27
46944;BME280;32678;43.852;25.952;2023-03-03T05:14:10;101395.59;;;7.10;76.98
46944;BME280;32678;43.852;25.952;2023-03-03T05:19:07;101392.97;;;7.14;76.65
46944;BME280;32678;43.852;25.952;2023-03-03T05:24:06;101380.81;;;7.13;76.77
46944;BME280;32678;43.852;25.952;2023-03-03T05:29:03;101400.63;;;7.31;76.24
46944;BME280;32678;43.852;25.952;2023-03-03T05:34:00;101398.81;;;7.40;76.25
46944;BME280;32678;43.852;25.952;2023-03-03T05:38:57;101402.13;;;7.55;76.18
46944;BME280;32678;43.852;25.952;2023-03-03T05:43:54;101410.78;;;7.60;75.62
46944;BME280;32678;43.852;25.952;2023-03-03T05:48:51;101412.53;;;7.62;75.65
46944;BME280;32678;43.852;25.952;2023-03-03T05:53:48;101410.09;;;7.43;75.25
46944;BME280;32678;43.852;25.952;2023-03-03T05:58:45;101407.41;;;7.50;75.70
46944;BME280;32678;43.852;25.952;2023-03-03T06:03:42;101409.03;;;7.60;75.68
46944;BME280;32678;43.852;25.952;2023-03-03T06:08:39;101416.91;;;7.57;76.17
46944;BME280;32678;43.852;25.952;2023-03-03T06:13:36;101406.38;;;7.66;76.00
46944;BME280;32678;43.852;25.952;2023-03-03T06:18:33;101411.50;;;7.75;75.63
46944;BME280;32678;43.852;25.952;2023-03-03T06:23:30;101413.28;;;7.72;75.90
46944;BME280;32678;43.852;25.952;2023-03-03T06:28:27;101420.97;;;7.84;75.51
46944;BME280;32678;43.852;25.952;2023-03-03T06:33:24;101420.88;;;7.92;75.61
46944;BME280;32678;43.852;25.952;2023-03-03T06:38:21;101420.84;;;7.96;75.82
46944;BME280;32678;43.852;25.952;2023-03-03T06:43:18;101426.88;;;8.00;75.65
46944;BME280;32678;43.852;25.952;2023-03-03T06:48:15;101427.69;;;8.05;75.89
46944;BME280;32678;43.852;25.952;2023-03-03T06:53:12;101425.03;;;8.06;75.73
46944;BME280;32678;43.852;25.952;2023-03-03T06:58:10;101428.50;;;8.08;75.36
46944;BME280;32678;43.852;25.952;2023-03-03T07:03:12;101433.84;;;8.01;75.79
46944;BME280;32678;43.852;25.952;2023-03-03T07:08:13;101425.22;;;7.93;75.78
46944;BME280;32678;43.852;25.952;2023-03-03T07:13:15;101416.06;;;7.57;78.06
46944;BME280;32678;43.852;25.952;2023-03-03T07:18:22;101425.38;;;6.80;81.71
46944;BME280;32678;43.852;25.952;2023-03-03T07:23:22;101414.28;;;6.50;84.30
46944;BME280;32678;43.852;25.952;2023-03-03T07:28:20;101415.91;;;6.65;84.72
46944;BME280;32678;43.852;25.952;2023-03-03T07:33:24;101404.44;;;6.92;84.38
46944;BME280;32678;43.852;25.952;2023-03-03T07:38:23;101400.84;;;7.08;83.01
46944;BME280;32678;43.852;25.952;2023-03-03T07:43:32;101411.47;;;6.82;83.63
46944;BME280;32678;43.852;25.952;2023-03-03T07:48:34;101407.03;;;6.98;83.44
46944;BME280;32678;43.852;25.952;2023-03-03T07:53:33;101403.69;;;6.78;84.43
46944;BME280;32678;43.852;25.952;2023-03-03T07:58:36;101398.41;;;6.88;83.89
46944;BME280;32678;43.852;25.952;2023-03-03T08:09:26;101386.28;;;6.80;83.75
46944;BME280;32678;43.852;25.952;2023-03-03T08:21:04;101387.78;;;7.10;82.72
46944;BME280;32678;43.852;25.952;2023-03-03T08:26:05;101390.44;;;7.05;82.25
46944;BME280;32678;43.852;25.952;2023-03-03T08:31:02;101380.78;;;7.16;81.79
46944;BME280;32678;43.852;25.952;2023-03-03T08:36:15;101386.00;;;7.15;82.60
46944;BME280;32678;43.852;25.952;2023-03-03T08:41:13;101374.47;;;7.40;81.60
46944;BME280;32678;43.852;25.952;2023-03-03T08:46:10;101367.69;;;7.22;80.67
46944;BME280;32678;43.852;25.952;2023-03-03T08:57:04;101368.28;;;7.49;80.45
46944;BME280;32678;43.852;25.952;2023-03-03T09:02:04;101362.38;;;7.31;82.06
46944;BME280;32678;43.852;25.952;2023-03-03T09:07:01;101347.66;;;7.27;81.06
46944;BME280;32678;43.852;25.952;2023-03-03T09:12:01;101365.56;;;7.59;80.94
46944;BME280;32678;43.852;25.952;2023-03-03T09:17:11;101360.09;;;7.79;80.86
46944;BME280;32678;43.852;25.952;2023-03-03T09:22:18;101335.09;;;7.61;79.18
46944;BME280;32678;43.852;25.952;2023-03-03T09:27:17;101340.91;;;7.86;79.07
46944;BME280;32678;43.852;25.952;2023-03-03T09:32:34;101350.28;;;7.98;79.16
46944;BME280;32678;43.852;25.952;2023-03-03T09:37:35;101346.81;;;7.99;78.70
46944;BME280;32678;43.852;25.952;2023-03-03T09:42:41;101351.16;;;7.98;79.05
46944;BME280;32678;43.852;25.952;2023-03-03T09:47:46;101346.81;;;7.97;79.68
46944;BME280;32678;43.852;25.952;2023-03-03T09:52:51;101349.97;;;8.22;78.97
46944;BME280;32678;43.852;25.952;2023-03-03T09:58:00;101341.50;;;8.05;78.79
46944;BME280;32678;43.852;25.952;2023-03-03T10:03:30;101339.53;;;8.22;79.44
46944;BME280;32678;43.852;25.952;2023-03-03T10:08:41;101332.75;;;8.10;79.87
46944;BME280;32678;43.852;25.952;2023-03-03T10:13:44;101334.38;;;8.17;79.19
46944;BME280;32678;43.852;25.952;2023-03-03T10:18:50;101330.72;;;8.29;79.18
46944;BME280;32678;43.852;25.952;2023-03-03T10:23:53;101315.59;;;7.91;81.41
46944;BME280;32678;43.852;25.952;2023-03-03T10:29:05;101316.25;;;8.05;80.50
46944;BME280;32678;43.852;25.952;2023-03-03T10:34:14;101301.16;;;8.30;80.20
46944;BME280;32678;43.852;25.952;2023-03-03T10:39:19;101297.94;;;8.66;77.16
46944;BME280;32678;43.852;25.952;2023-03-03T10:44:26;101277.72;;;8.21;79.24
46944;BME280;32678;43.852;25.952;2023-03-03T10:49:33;101273.47;;;8.15;79.96
46944;BME280;32678;43.852;25.952;2023-03-03T10:56:52;101256.50;;;8.45;80.05
46944;BME280;32678;43.852;25.952;2023-03-03T11:01:03;101252.94;;;8.49;78.02
46944;BME280;32678;43.852;25.952;2023-03-03T11:06:48;101231.16;;;8.49;79.54
46944;BME280;32678;43.852;25.952;2023-03-03T11:11:49;101232.50;;;8.71;78.85
46944;BME280;32678;43.852;25.952;2023-03-03T11:16:53;101235.53;;;8.48;79.13
46944;BME280;32678;43.852;25.952;2023-03-03T11:21:58;101224.84;;;8.60;76.70
46944;BME280;32678;43.852;25.952;2023-03-03T11:27:07;101232.28;;;8.33;78.40
46944;BME280;32678;43.852;25.952;2023-03-03T11:32:16;101228.38;;;8.03;79.47
46944;BME280;32678;43.852;25.952;2023-03-03T11:37:18;101220.19;;;8.25;77.41
46944;BME280;32678;43.852;25.952;2023-03-03T11:42:20;101220.88;;;8.38;78.70
46944;BME280;32678;43.852;25.952;2023-03-03T11:47:21;101216.19;;;8.57;77.15
46944;BME280;32678;43.852;25.952;2023-03-03T11:52:23;101206.84;;;8.45;77.64
46944;BME280;32678;43.852;25.952;2023-03-03T11:57:25;101203.31;;;8.48;77.88
46944;BME280;32678;43.852;25.952;2023-03-03T12:02:34;101187.81;;;8.36;79.33
46944;BME280;32678;43.852;25.952;2023-03-03T12:07:41;101199.97;;;8.40;80.08
46944;BME280;32678;43.852;25.952;2023-03-03T12:12:41;101190.59;;;8.76;77.47
46944;BME280;32678;43.852;25.952;2023-03-03T12:17:53;101188.91;;;8.73;77.91
46944;BME280;32678;43.852;25.952;2023-03-03T12:22:57;101197.56;;;8.75;77.71
46944;BME280;32678;43.852;25.952;2023-03-03T12:28:07;101195.34;;;9.00;76.23
46944;BME280;32678;43.852;25.952;2023-03-03T12:33:17;101193.13;;;8.80;77.55
46944;BME280;32678;43.852;25.952;2023-03-03T12:38:19;101193.19;;;8.76;77.68
46944;BME280;32678;43.852;25.952;2023-03-03T12:43:22;101186.81;;;8.90;76.65
46944;BME280;32678;43.852;25.952;2023-03-03T12:48:27;101197.25;;;8.93;76.53
46944;BME280;32678;43.852;25.952;2023-03-03T12:53:36;101175.00;;;8.71;76.80
46944;BME280;32678;43.852;25.952;2023-03-03T12:58:40;101191.53;;;8.72;77.47
46944;BME280;32678;43.852;25.952;2023-03-03T13:03:41;101195.03;;;8.72;77.48
46944;BME280;32678;43.852;25.952;2023-03-03T13:08:54;101192.44;;;8.70;77.66
46944;BME280;32678;43.852;25.952;2023-03-03T13:13:56;101194.06;;;8.76;76.70
46944;BME280;32678;43.852;25.952;2023-03-03T13:18:56;101194.03;;;8.79;76.76
46944;BME280;32678;43.852;25.952;2023-03-03T13:23:59;101193.78;;;8.91;75.87
46944;BME280;32678;43.852;25.952;2023-03-03T13:29:03;101189.72;;;8.77;76.80
46944;BME280;32678;43.852;25.952;2023-03-03T13:34:03;101184.38;;;8.81;77.08
46944;BME280;32678;43.852;25.952;2023-03-03T13:39:04;101183.50;;;8.82;76.88
46944;BME280;32678;43.852;25.952;2023-03-03T13:44:08;101188.13;;;8.68;77.66
46944;BME280;32678;43.852;25.952;2023-03-03T13:49:34;101183.75;;;8.68;77.63
46944;BME280;32678;43.852;25.952;2023-03-03T13:54:48;101183.59;;;8.76;78.12
46944;BME280;32678;43.852;25.952;2023-03-03T13:59:49;101177.50;;;8.77;78.21
46944;BME280;32678;43.852;25.952;2023-03-03T14:05:11;101176.88;;;8.64;78.53
46944;BME280;32678;43.852;25.952;2023-03-03T14:10:26;101179.34;;;8.72;78.00
46944;BME280;32678;43.852;25.952;2023-03-03T14:15:27;101172.34;;;8.74;77.64
46944;BME280;32678;43.852;25.952;2023-03-03T14:20:27;101179.34;;;8.70;78.34
46944;BME280;32678;43.852;25.952;2023-03-03T14:25:25;101179.63;;;8.57;78.77
46944;BME280;32678;43.852;25.952;2023-03-03T14:30:26;101171.84;;;8.54;79.60
46944;BME280;32678;43.852;25.952;2023-03-03T14:35:30;101172.53;;;8.63;79.50
46944;BME280;32678;43.852;25.952;2023-03-03T14:40:33;101142.59;;;8.34;80.32
46944;BME280;32678;43.852;25.952;2023-03-03T14:45:32;101170.97;;;8.55;79.26
46944;BME280;32678;43.852;25.952;2023-03-03T14:50:32;101164.59;;;8.69;78.92
46944;BME280;32678;43.852;25.952;2023-03-03T14:55:31;101165.66;;;8.58;79.33
46944;BME280;32678;43.852;25.952;2023-03-03T15:00:31;101166.47;;;8.61;79.19
46944;BME280;32678;43.852;25.952;2023-03-03T15:05:32;101161.91;;;8.71;78.92
46944;BME280;32678;43.852;25.952;2023-03-03T15:10:32;101165.75;;;8.52;78.82
46944;BME280;32678;43.852;25.952;2023-03-03T15:15:32;101168.28;;;8.56;77.80
46944;BME280;32678;43.852;25.952;2023-03-03T15:20:40;101164.88;;;8.53;78.52
46944;BME280;32678;43.852;25.952;2023-03-03T15:25:39;101158.78;;;8.54;77.95
46944;BME280;32678;43.852;25.952;2023-03-03T15:30:50;101165.94;;;8.43;79.23
46944;BME280;32678;43.852;25.952;2023-03-03T15:35:50;101171.19;;;8.41;80.37
46944;BME280;32678;43.852;25.952;2023-03-03T15:40:48;101172.03;;;8.42;80.55
46944;BME280;32678;43.852;25.952;2023-03-03T15:45:51;101176.59;;;8.31;81.46
46944;BME280;32678;43.852;25.952;2023-03-03T15:50:54;101180.75;;;8.41;82.25
46944;BME280;32678;43.852;25.952;2023-03-03T15:55:58;101178.19;;;8.39;82.83
46944;BME280;32678;43.852;25.952;2023-03-03T16:01:00;101178.19;;;8.39;82.81
46944;BME280;32678;43.852;25.952;2023-03-03T16:06:07;101182.59;;;8.36;84.38
46944;BME280;32678;43.852;25.952;2023-03-03T16:11:10;101201.94;;;8.24;85.42
46944;BME280;32678;43.852;25.952;2023-03-03T16:16:14;101198.53;;;8.19;87.05
46944;BME280;32678;43.852;25.952;2023-03-03T16:21:17;101204.56;;;8.22;87.46
46944;BME280;32678;43.852;25.952;2023-03-03T16:26:26;101211.53;;;8.22;87.90
46944;BME280;32678;43.852;25.952;2023-03-03T16:31:35;101215.47;;;7.94;89.31
46944;BME280;32678;43.852;25.952;2023-03-03T16:36:43;101214.66;;;7.90;90.11
46944;BME280;32678;43.852;25.952;2023-03-03T16:41:49;101220.69;;;7.92;90.71
46944;BME280;32678;43.852;25.952;2023-03-03T16:46:49;101198.13;;;7.90;90.62
46944;BME280;32678;43.852;25.952;2023-03-03T16:51:47;101229.47;;;7.88;91.50
46944;BME280;32678;43.852;25.952;2023-03-03T16:56:47;101231.25;;;7.86;92.42
46944;BME280;32678;43.852;25.952;2023-03-03T17:01:49;101240.75;;;7.90;92.83
46944;BME280;32678;43.852;25.952;2023-03-03T17:06:48;101231.94;;;7.97;92.42
46944;BME280;32678;43.852;25.952;2023-03-03T17:11:49;101230.91;;;8.07;92.55
46944;BME280;32678;43.852;25.952;2023-03-03T17:16:55;101234.38;;;8.11;92.42
46944;BME280;32678;43.852;25.952;2023-03-03T17:22:02;101233.50;;;8.09;92.83
46944;BME280;32678;43.852;25.952;2023-03-03T17:27:07;101241.28;;;8.13;92.76
46944;BME280;32678;43.852;25.952;2023-03-03T17:32:14;101237.94;;;8.04;93.18
46944;BME280;32678;43.852;25.952;2023-03-03T17:37:19;101246.00;;;7.89;94.08
46944;BME280;32678;43.852;25.952;2023-03-03T17:42:20;101247.50;;;8.05;93.91
46944;BME280;32678;43.852;25.952;2023-03-03T17:47:23;101253.59;;;8.04;93.46
46944;BME280;32678;43.852;25.952;2023-03-03T17:52:28;101246.84;;;7.91;93.40
46944;BME280;32678;43.852;25.952;2023-03-03T17:57:32;101264.44;;;7.76;94.08
46944;BME280;32678;43.852;25.952;2023-03-03T18:02:40;101267.06;;;7.73;94.43
46944;BME280;32678;43.852;25.952;2023-03-03T18:07:53;101259.16;;;7.81;94.36
46944;BME280;32678;43.852;25.952;2023-03-03T18:13:04;101267.94;;;7.77;93.43
46944;BME280;32678;43.852;25.952;2023-03-03T18:18:16;101265.47;;;7.65;94.06
46944;BME280;32678;43.852;25.952;2023-03-03T18:23:32;101270.56;;;7.72;93.20
46944;BME280;32678;43.852;25.952;2023-03-03T18:28:42;101269.94;;;7.55;94.17
46944;BME280;32678;43.852;25.952;2023-03-03T18:33:41;101276.88;;;7.55;94.40
46944;BME280;32678;43.852;25.952;2023-03-03T18:38:42;101278.00;;;7.35;95.59
46944;BME280;32678;43.852;25.952;2023-03-03T18:43:46;101283.22;;;7.35;95.82
46944;BME280;32678;43.852;25.952;2023-03-03T18:48:46;101290.28;;;7.26;96.33
46944;BME280;32678;43.852;25.952;2023-03-03T18:53:58;101288.53;;;7.25;97.01
46944;BME280;32678;43.852;25.952;2023-03-03T18:58:55;101293.91;;;7.13;97.52
46944;BME280;32678;43.852;25.952;2023-03-03T19:04:00;101298.22;;;7.15;97.84
46944;BME280;32678;43.852;25.952;2023-03-03T19:08:58;101286.19;;;7.01;98.21
46944;BME280;32678;43.852;25.952;2023-03-03T19:19:11;101311.81;;;7.45;95.54
46944;BME280;32678;43.852;25.952;2023-03-03T19:24:25;101314.63;;;7.26;95.30
46944;BME280;32678;43.852;25.952;2023-03-03T19:29:30;101310.16;;;7.37;92.49
46944;BME280;32678;43.852;25.952;2023-03-03T19:34:36;101315.44;;;7.30;93.04
46944;BME280;32678;43.852;25.952;2023-03-03T19:39:41;101318.25;;;7.13;94.62
46944;BME280;32678;43.852;25.952;2023-03-03T19:44:55;101310.38;;;7.16;94.42
46944;BME280;32678;43.852;25.952;2023-03-03T19:50:01;101316.47;;;7.14;94.69
46944;BME280;32678;43.852;25.952;2023-03-03T19:55:15;101311.34;;;7.08;95.11
46944;BME280;32678;43.852;25.952;2023-03-03T20:00:15;101324.47;;;6.94;95.18
46944;BME280;32678;43.852;25.952;2023-03-03T20:05:24;101323.59;;;6.98;94.85
46944;BME280;32678;43.852;25.952;2023-03-03T20:15:48;101324.34;;;7.09;95.55
46944;BME280;32678;43.852;25.952;2023-03-03T20:21:01;101323.56;;;7.03;95.56
46944;BME280;32678;43.852;25.952;2023-03-03T20:26:07;101319.22;;;7.02;95.67
46944;BME280;32678;43.852;25.952;2023-03-03T20:31:10;101316.66;;;6.94;95.96
46944;BME280;32678;43.852;25.952;2023-03-03T20:36:18;101317.53;;;6.96;96.25
46944;BME280;32678;43.852;25.952;2023-03-03T20:41:26;101312.97;;;7.15;94.43
46944;BME280;32678;43.852;25.952;2023-03-03T20:46:28;101308.69;;;7.09;94.48
46944;BME280;32678;43.852;25.952;2023-03-03T20:51:37;101317.41;;;7.08;93.69
46944;BME280;32678;43.852;25.952;2023-03-03T20:56:41;101317.53;;;6.94;95.01
46944;BME280;32678;43.852;25.952;2023-03-03T21:01:43;101307.91;;;7.00;94.68
46944;BME280;32678;43.852;25.952;2023-03-03T21:06:45;101313.03;;;7.13;93.27
46944;BME280;32678;43.852;25.952;2023-03-03T21:11:46;101319.22;;;7.02;94.37
46944;BME280;32678;43.852;25.952;2023-03-03T21:16:43;101311.31;;;7.09;94.07
46944;BME280;32678;43.852;25.952;2023-03-03T21:21:41;101317.50;;;6.97;93.84
46944;BME280;32678;43.852;25.952;2023-03-03T21:26:45;101307.13;;;6.90;94.36
46944;BME280;32678;43.852;25.952;2023-03-03T21:31:44;101320.03;;;7.05;93.87
46944;BME280;32678;43.852;25.952;2023-03-03T21:36:44;101328.72;;;7.06;93.49
46944;BME280;32678;43.852;25.952;2023-03-03T21:41:51;101306.19;;;7.02;93.94
46944;BME280;32678;43.852;25.952;2023-03-03T21:46:50;101328.53;;;7.27;92.23
46944;BME280;32678;43.852;25.952;2023-03-03T21:51:47;101333.13;;;7.01;92.87
46944;BME280;32678;43.852;25.952;2023-03-03T21:56:43;101338.19;;;7.14;92.52
46944;BME280;32678;43.852;25.952;2023-03-03T22:01:43;101334.81;;;7.08;93.47
46944;BME280;32678;43.852;25.952;2023-03-03T22:06:40;101320.94;;;7.01;93.92
46944;BME280;32678;43.852;25.952;2023-03-03T22:11:37;101327.84;;;7.07;92.98
46944;BME280;32678;43.852;25.952;2023-03-03T22:16:34;101314.81;;;7.08;93.35
46944;BME280;32678;43.852;25.952;2023-03-03T22:21:32;101321.78;;;7.06;92.72
46944;BME280;32678;43.852;25.952;2023-03-03T22:26:29;101319.97;;;7.11;92.84
46944;BME280;32678;43.852;25.952;2023-03-03T22:31:29;101311.38;;;7.00;92.99
46944;BME280;32678;43.852;25.952;2023-03-03T22:36:26;101311.34;;;7.08;92.99
46944;BME280;32678;43.852;25.952;2023-03-03T22:41:24;101312.16;;;7.11;92.76
46944;BME280;32678;43.852;25.952;2023-03-03T22:46:30;101308.69;;;7.12;92.75
46944;BME280;32678;43.852;25.952;2023-03-03T22:51:27;101301.63;;;7.19;92.22
46944;BME280;32678;43.852;25.952;2023-03-03T22:56:24;101306.75;;;7.31;92.02
46944;BME280;32678;43.852;25.952;2023-03-03T23:01:21;101305.00;;;7.28;92.08
46944;BME280;32678;43.852;25.952;2023-03-03T23:11:27;101314.41;;;7.43;91.98
46944;BME280;32678;43.852;25.952;2023-03-03T23:16:24;101309.94;;;7.53;91.56
46944;BME280;32678;43.852;25.952;2023-03-03T23:21:21;101309.94;;;7.56;91.17
46944;BME280;32678;43.852;25.952;2023-03-03T23:26:19;101312.59;;;7.51;91.25
46944;BME280;32678;43.852;25.952;2023-03-03T23:31:16;101298.75;;;7.43;91.24
46944;BME280;32678;43.852;25.952;2023-03-03T23:36:13;101316.25;;;7.36;91.83
46944;BME280;32678;43.852;25.952;2023-03-03T23:41:10;101311.03;;;7.35;92.21
46944;BME280;32678;43.852;25.952;2023-03-03T23:46:06;101313.75;;;7.24;92.43
46944;BME280;32678;43.852;25.952;2023-03-03T23:51:05;101313.03;;;7.13;92.75
46944;BME280;32678;43.852;25.952;2023-03-03T23:56:01;101309.41;;;7.23;92.59
